Ankergracht — PCQL — position and weather

sailwx.info

Track history (hours):
 
Tides and Currents Weather Stations Pressure Air Temp Water Temp Dewpoint Dewpoint Depression Visibility Wind Speed Wind Dir Waves Ship Positions

Ankergracht

Last reported at 2015-Apr-19 15:32 UTC. Time now 2015-Apr-19 15:45 UTC.
Position N 51°17' E 004°23'.

Length 130 m; beam 19 m; draft 9 m.

Type: Cargo ship. MMSI: 244852000.

Date/timePositionNaut miles runAvg speedWind from/ knotsBaromVisibWave heightAir tempDewpointWater temp
2015-Apr-19 15:32N 51°17' E 004°23'0 0.0
2015-Apr-19 14:32N 51°17' E 004°23'0 0.0
2015-Apr-19 13:32N 51°17' E 004°23'0 0.0
2015-Apr-19 12:31N 51°17' E 004°23'0 0.0
2015-Apr-19 11:31N 51°17' E 004°23'0 0.0
2015-Apr-19 10:31N 51°17' E 004°23'0 0.0
2015-Apr-19 09:31N 51°17' E 004°23'0 0.0
2015-Apr-19 08:31N 51°17' E 004°23'0 0.0
2015-Apr-19 07:31N 51°17' E 004°23'0 0.0
2015-Apr-19 06:31N 51°17' E 004°23'0 0.0
2015-Apr-19 05:31N 51°17' E 004°23'0 0.0
2015-Apr-19 04:31N 51°17' E 004°23'0 0.0
2015-Apr-19 03:28N 51°17' E 004°23'0 0.0
2015-Apr-19 02:31N 51°17' E 004°23'0 0.0
2015-Apr-19 01:28N 51°17' E 004°23'0 0.0
2015-Apr-19 00:28N 51°17' E 004°23'0 0.0
2015-Apr-18 23:31N 51°17' E 004°23'0 0.0
2015-Apr-18 22:31N 51°17' E 004°23'0 0.0
2015-Apr-18 21:31N 51°17' E 004°23'0 0.0
2015-Apr-18 20:31N 51°17' E 004°23'0 0.0
2015-Apr-18 19:31N 51°17' E 004°23'0 0.0
2015-Apr-18 18:31N 51°17' E 004°23'0 0.0
2015-Apr-18 17:31N 51°17' E 004°23'0 0.0
2015-Apr-18 16:31N 51°17' E 004°23'0 0.0
2015-Apr-18 15:31N 51°17' E 004°23'0 0.0
2015-Apr-18 14:31N 51°17' E 004°23'0 0.0
2015-Apr-18 13:31N 51°17' E 004°23'0 0.0
2015-Apr-18 12:31N 51°17' E 004°23'0 0.0
2015-Apr-18 11:31N 51°17' E 004°23'0 0.0
2015-Apr-18 10:31N 51°17' E 004°23'0 0.0
2015-Apr-18 09:31N 51°17' E 004°23'0 0.0
2015-Apr-18 08:31N 51°17' E 004°23'0 0.0
2015-Apr-18 07:31N 51°17' E 004°23'0 0.0
2015-Apr-18 06:28N 51°17' E 004°23'0 0.0
2015-Apr-18 05:34N 51°17' E 004°23'0 0.0
2015-Apr-18 04:33N 51°17' E 004°23'0 0.0
2015-Apr-18 03:30N 51°17' E 004°23'0 0.0
2015-Apr-18 02:33N 51°17' E 004°23'0 0.0
2015-Apr-18 01:33N 51°17' E 004°23'0 0.0
2015-Apr-18 00:33N 51°17' E 004°23'0 0.0
2015-Apr-17 23:30N 51°17' E 004°23'0 0.0
2015-Apr-17 22:33N 51°17' E 004°23'0 0.0
2015-Apr-17 21:33N 51°17' E 004°23'0 0.0
2015-Apr-17 20:33N 51°17' E 004°23'0 0.0
2015-Apr-17 19:33N 51°17' E 004°23'0 0.0
2015-Apr-17 18:33N 51°17' E 004°23'0 0.0
2015-Apr-17 17:33N 51°17' E 004°23'0 0.0
2015-Apr-17 16:33N 51°17' E 004°23'0 0.0
2015-Apr-17 15:33N 51°17' E 004°23'0 0.0
2015-Apr-17 14:33N 51°17' E 004°23'0 0.0
2015-Apr-17 13:33N 51°17' E 004°23'0 0.0
2015-Apr-17 12:33N 51°17' E 004°23'0 0.0
2015-Apr-17 11:33N 51°17' E 004°23'0 0.0
2015-Apr-17 10:33N 51°17' E 004°23'0 0.0
2015-Apr-17 09:33N 51°17' E 004°23'0 0.0
2015-Apr-17 08:33N 51°17' E 004°23'0 0.0
2015-Apr-17 07:33N 51°17' E 004°23'0 0.0
2015-Apr-17 06:33N 51°17' E 004°23'0 0.0
2015-Apr-17 05:30N 51°17' E 004°23'0 0.0
2015-Apr-17 04:30N 51°17' E 004°23'0 0.0
2015-Apr-17 03:33N 51°17' E 004°23'0 0.0
2015-Apr-17 02:33N 51°17' E 004°23'0 0.0
2015-Apr-17 01:33N 51°17' E 004°23'0 0.0
2015-Apr-17 00:30N 51°17' E 004°23'0 0.0
2015-Apr-16 23:33N 51°17' E 004°23'0 0.0
2015-Apr-16 22:33N 51°17' E 004°23'0 0.0
2015-Apr-16 21:30N 51°17' E 004°23'0 0.0
2015-Apr-16 20:30N 51°17' E 004°23'0 0.0
2015-Apr-16 19:33N 51°17' E 004°23'0 0.0
2015-Apr-16 18:29N 51°17' E 004°23'0 0.0
2015-Apr-16 17:32N 51°17' E 004°23'0 0.0
2015-Apr-16 16:32N 51°17' E 004°23'0 0.0
2015-Apr-16 15:32N 51°17' E 004°23'0 0.0
2015-Apr-16 14:32N 51°17' E 004°23'0 0.0
2015-Apr-16 13:33N 51°17' E 004°23'5 5.0
2015-Apr-16 12:34N 51°21' E 004°17'0 0.2
2015-Apr-16 11:34N 51°21' E 004°17'1 0.7
2015-Apr-16 10:34N 51°21' E 004°16'4 4.4
2015-Apr-16 09:33N 51°24' E 004°11'8 8.2
2015-Apr-16 08:33N 51°24' E 003°58'9 9.2
2015-Apr-16 07:33N 51°23' E 003°43'1010.2
2015-Apr-16 06:33N 51°25' E 003°27'1211.9
2015-Apr-16 05:33N 51°24' E 003°08'1110.6
2015-Apr-16 04:33N 51°22' E 002°51'10 9.7
2015-Apr-16 03:33N 51°22' E 002°36'1111.2
2015-Apr-16 02:33N 51°19' E 002°19'1110.8
2015-Apr-16 01:34N 51°13' E 002°04'1010.0
2015-Apr-16 00:33N 51°08' E 001°50'10 9.8
2015-Apr-15 23:33N 51°01' E 001°39'1010.0
2015-Apr-15 22:34N 50°54' E 001°29'1111.3
2015-Apr-15 21:33N 50°43' E 001°22'1110.9
2015-Apr-15 20:33N 50°36' E 001°09'1111.0
2015-Apr-15 19:33N 50°30' E 000°55'1211.5
2015-Apr-15 18:33N 50°26' E 000°38'1211.9
2015-Apr-15 17:33N 50°23' E 000°20'2511.5
2015-Apr-15 15:24N 50°17' W 000°18'1011.7
2015-Apr-15 14:31N 50°14' W 000°33'9 9.7
2015-Apr-15 13:33N 50°12' W 000°47'9 8.7
2015-Apr-15 12:33N 50°09' W 001°00'8 7.9
2015-Apr-15 11:32N 50°07' W 001°13'7 7.4
2015-Apr-15 10:32N 50°05' W 001°24'7 7.6
2015-Apr-15 09:33N 50°03' W 001°35'9 8.3
2015-Apr-15 08:31N 50°01' W 001°48'9 9.7
2015-Apr-15 07:33N 49°58' W 002°02'1110.8
2015-Apr-15 06:32N 49°55' W 002°18'1111.3
2015-Apr-15 05:33N 49°52' W 002°35'1211.5
2015-Apr-15 04:33N 49°48' W 002°52'1111.2
2015-Apr-15 03:33N 49°43' W 003°07'127 9.8
2015-Apr-14 14:33N 48°33' W 005°49'2210.7
2015-Apr-14 12:31N 48°13' W 006°04'  
2015-Apr-10 04:33N 28°52' W 015°34'1212.2
2015-Apr-10 03:33N 28°41' W 015°38'1212.2
2015-Apr-10 02:33N 28°30' W 015°45'1212.3
2015-Apr-10 01:33N 28°21' W 015°54'3712.4
2015-Apr-09 22:33N 27°50' W 016°19'  
Track history (hours):
 
Tides and Currents Weather Stations Pressure Air Temp Water Temp Dewpoint Dewpoint Depression Visibility Wind Speed Wind Dir Waves Ship Positions

Ankergracht

Last reported at 2015-Apr-19 15:32 UTC. Time now 2015-Apr-19 15:45 UTC.
Position N 51°17' E 004°23'.

Length 130 m; beam 19 m; draft 9 m.

Type: Cargo ship. MMSI: 244852000.

Date/timePositionNaut miles runAvg speedWind from/ knotsBaromVisibWave heightAir tempDewpointWater temp
2015-Apr-19 15:32N 51°17' E 004°23'0 0.0
2015-Apr-19 14:32N 51°17' E 004°23'0 0.0
2015-Apr-19 13:32N 51°17' E 004°23'0 0.0
2015-Apr-19 12:31N 51°17' E 004°23'0 0.0
2015-Apr-19 11:31N 51°17' E 004°23'0 0.0
2015-Apr-19 10:31N 51°17' E 004°23'0 0.0
2015-Apr-19 09:31N 51°17' E 004°23'0 0.0
2015-Apr-19 08:31N 51°17' E 004°23'0 0.0
2015-Apr-19 07:31N 51°17' E 004°23'0 0.0
2015-Apr-19 06:31N 51°17' E 004°23'0 0.0
2015-Apr-19 05:31N 51°17' E 004°23'0 0.0
2015-Apr-19 04:31N 51°17' E 004°23'0 0.0
2015-Apr-19 03:28N 51°17' E 004°23'0 0.0
2015-Apr-19 02:31N 51°17' E 004°23'0 0.0
2015-Apr-19 01:28N 51°17' E 004°23'0 0.0
2015-Apr-19 00:28N 51°17' E 004°23'0 0.0
2015-Apr-18 23:31N 51°17' E 004°23'0 0.0
2015-Apr-18 22:31N 51°17' E 004°23'0 0.0
2015-Apr-18 21:31N 51°17' E 004°23'0 0.0
2015-Apr-18 20:31N 51°17' E 004°23'0 0.0
2015-Apr-18 19:31N 51°17' E 004°23'0 0.0
2015-Apr-18 18:31N 51°17' E 004°23'0 0.0
2015-Apr-18 17:31N 51°17' E 004°23'0 0.0
2015-Apr-18 16:31N 51°17' E 004°23'0 0.0
2015-Apr-18 15:31N 51°17' E 004°23'0 0.0
2015-Apr-18 14:31N 51°17' E 004°23'0 0.0
2015-Apr-18 13:31N 51°17' E 004°23'0 0.0
2015-Apr-18 12:31N 51°17' E 004°23'0 0.0
2015-Apr-18 11:31N 51°17' E 004°23'0 0.0
2015-Apr-18 10:31N 51°17' E 004°23'0 0.0
2015-Apr-18 09:31N 51°17' E 004°23'0 0.0
2015-Apr-18 08:31N 51°17' E 004°23'0 0.0
2015-Apr-18 07:31N 51°17' E 004°23'0 0.0
2015-Apr-18 06:28N 51°17' E 004°23'0 0.0
2015-Apr-18 05:34N 51°17' E 004°23'0 0.0
2015-Apr-18 04:33N 51°17' E 004°23'0 0.0
2015-Apr-18 03:30N 51°17' E 004°23'0 0.0
2015-Apr-18 02:33N 51°17' E 004°23'0 0.0
2015-Apr-18 01:33N 51°17' E 004°23'0 0.0
2015-Apr-18 00:33N 51°17' E 004°23'0 0.0
2015-Apr-17 23:30N 51°17' E 004°23'0 0.0
2015-Apr-17 22:33N 51°17' E 004°23'0 0.0
2015-Apr-17 21:33N 51°17' E 004°23'0 0.0
2015-Apr-17 20:33N 51°17' E 004°23'0 0.0
2015-Apr-17 19:33N 51°17' E 004°23'0 0.0
2015-Apr-17 18:33N 51°17' E 004°23'0 0.0
2015-Apr-17 17:33N 51°17' E 004°23'0 0.0
2015-Apr-17 16:33N 51°17' E 004°23'0 0.0
2015-Apr-17 15:33N 51°17' E 004°23'0 0.0
2015-Apr-17 14:33N 51°17' E 004°23'0 0.0
2015-Apr-17 13:33N 51°17' E 004°23'0 0.0
2015-Apr-17 12:33N 51°17' E 004°23'0 0.0
2015-Apr-17 11:33N 51°17' E 004°23'0 0.0
2015-Apr-17 10:33N 51°17' E 004°23'0 0.0
2015-Apr-17 09:33N 51°17' E 004°23'0 0.0
2015-Apr-17 08:33N 51°17' E 004°23'0 0.0
2015-Apr-17 07:33N 51°17' E 004°23'0 0.0
2015-Apr-17 06:33N 51°17' E 004°23'0 0.0
2015-Apr-17 05:30N 51°17' E 004°23'0 0.0
2015-Apr-17 04:30N 51°17' E 004°23'0 0.0
2015-Apr-17 03:33N 51°17' E 004°23'0 0.0
2015-Apr-17 02:33N 51°17' E 004°23'0 0.0
2015-Apr-17 01:33N 51°17' E 004°23'0 0.0
2015-Apr-17 00:30N 51°17' E 004°23'0 0.0
2015-Apr-16 23:33N 51°17' E 004°23'0 0.0
2015-Apr-16 22:33N 51°17' E 004°23'0 0.0
2015-Apr-16 21:30N 51°17' E 004°23'0 0.0
2015-Apr-16 20:30N 51°17' E 004°23'0 0.0
2015-Apr-16 19:33N 51°17' E 004°23'0 0.0
2015-Apr-16 18:29N 51°17' E 004°23'0 0.0
2015-Apr-16 17:32N 51°17' E 004°23'0 0.0
2015-Apr-16 16:32N 51°17' E 004°23'0 0.0
2015-Apr-16 15:32N 51°17' E 004°23'0 0.0
2015-Apr-16 14:32N 51°17' E 004°23'0 0.0
2015-Apr-16 13:33N 51°17' E 004°23'5 5.0
2015-Apr-16 12:34N 51°21' E 004°17'0 0.2
2015-Apr-16 11:34N 51°21' E 004°17'1 0.7
2015-Apr-16 10:34N 51°21' E 004°16'4 4.4
2015-Apr-16 09:33N 51°24' E 004°11'8 8.2
2015-Apr-16 08:33N 51°24' E 003°58'9 9.2
2015-Apr-16 07:33N 51°23' E 003°43'1010.2
2015-Apr-16 06:33N 51°25' E 003°27'1211.9
2015-Apr-16 05:33N 51°24' E 003°08'1110.6
2015-Apr-16 04:33N 51°22' E 002°51'10 9.7
2015-Apr-16 03:33N 51°22' E 002°36'1111.2
2015-Apr-16 02:33N 51°19' E 002°19'1110.8
2015-Apr-16 01:34N 51°13' E 002°04'1010.0
2015-Apr-16 00:33N 51°08' E 001°50'10 9.8
2015-Apr-15 23:33N 51°01' E 001°39'1010.0
2015-Apr-15 22:34N 50°54' E 001°29'1111.3
2015-Apr-15 21:33N 50°43' E 001°22'1110.9
2015-Apr-15 20:33N 50°36' E 001°09'1111.0
2015-Apr-15 19:33N 50°30' E 000°55'1211.5
2015-Apr-15 18:33N 50°26' E 000°38'1211.9
2015-Apr-15 17:33N 50°23' E 000°20'2511.5
2015-Apr-15 15:24N 50°17' W 000°18'1011.7
2015-Apr-15 14:31N 50°14' W 000°33'9 9.7
2015-Apr-15 13:33N 50°12' W 000°47'9 8.7
2015-Apr-15 12:33N 50°09' W 001°00'8 7.9
2015-Apr-15 11:32N 50°07' W 001°13'7 7.4
2015-Apr-15 10:32N 50°05' W 001°24'7 7.6
2015-Apr-15 09:33N 50°03' W 001°35'9 8.3
2015-Apr-15 08:31N 50°01' W 001°48'9 9.7
2015-Apr-15 07:33N 49°58' W 002°02'1110.8
2015-Apr-15 06:32N 49°55' W 002°18'1111.3
2015-Apr-15 05:33N 49°52' W 002°35'1211.5
2015-Apr-15 04:33N 49°48' W 002°52'1111.2
2015-Apr-15 03:33N 49°43' W 003°07'127 9.8
2015-Apr-14 14:33N 48°33' W 005°49'2210.7
2015-Apr-14 12:31N 48°13' W 006°04'  
2015-Apr-10 04:33N 28°52' W 015°34'1212.2
2015-Apr-10 03:33N 28°41' W 015°38'1212.2
2015-Apr-10 02:33N 28°30' W 015°45'1212.3
2015-Apr-10 01:33N 28°21' W 015°54'3712.4
2015-Apr-09 22:33N 27°50' W 016°19'  

Dump ship's entire track history